Time;durP1;ratioP1;P1;durP2;ratioP2;P2;SDS_P1;SDS_P2;PMS_P1;PMS_P2;Temp;Humidity;BMP_temperature;BMP_pressure;BME280_temperature;BME280_humidity;BME280_pressure;Samples;Min_cycle;Max_cycle;Signal;HPM_P1;HPM_P2
2022/09/05 00:00:26;;;;;;;11.32;1.70;;;;;;;;;;4994554;28;20111;-60
2022/09/05 00:02:58;;;;;;;15.68;2.22;;;;;;;;;;4994135;28;20520;-59
2022/09/05 00:05:35;;;;;;;28.50;3.40;;;;;;;;;;5062671;28;20432;-59
2022/09/05 00:08:27;;;;;;;32.13;3.63;;;;;;;;;;5074322;28;20048;-62
2022/09/05 00:10:54;;;;;;;;;;;;;;;;;;5067950;28;20044;-60
2022/09/05 00:13:43;;;;;;;21.90;2.72;;;;;;;;;;5069945;28;20436;-59
2022/09/05 00:16:45;;;;;;;11.63;2.08;;;;;;;;;;5075593;28;20032;-60
2022/09/05 00:19:14;;;;;;;6.78;1.52;;;;;;;;;;4970578;28;20050;-60
2022/09/05 00:22:12;;;;;;;37.08;3.83;;;;;;;;;;4969795;28;20065;-60
2022/09/05 00:24:59;;;;;;;12.55;1.80;;;;;;;;;;4970064;28;20039;-60
2022/09/05 00:28:04;;;;;;;9.43;1.88;;;;;;;;;;4969725;28;20058;-60
2022/09/05 00:30:56;;;;;;;17.00;2.30;;;;;;;;;;4970473;28;20039;-60
2022/09/05 00:33:57;;;;;;;26.70;3.05;;;;;;;;;;4969901;28;20106;-61
2022/09/05 00:36:24;;;;;;;15.88;2.22;;;;;;;;;;4969009;28;20039;-60
2022/09/05 00:38:59;;;;;;;35.70;3.72;;;;;;;;;;4969298;28;20066;-60
2022/09/05 00:41:26;;;;;;;20.80;2.95;;;;;;;;;;4969391;28;20137;-60
2022/09/05 00:43:55;;;;;;;24.48;3.22;;;;;;;;;;4969442;28;20047;-60
2022/09/05 00:46:23;;;;;;;16.50;2.13;;;;;;;;;;4969912;28;20452;-61
2022/09/05 00:49:12;;;;;;;14.52;2.08;;;;;;;;;;4969817;28;20046;-60
2022/09/05 00:51:43;;;;;;;18.63;2.53;;;;;;;;;;4968785;28;20602;-60
2022/09/05 00:54:28;;;;;;;15.35;2.08;;;;;;;;;;5061324;28;20560;-60
2022/09/05 00:57:27;;;;;;;11.73;1.95;;;;;;;;;;5074077;28;20064;-61
2022/09/05 00:59:56;;;;;;;29.38;3.70;;;;;;;;;;5074222;28;20032;-62
2022/09/05 01:02:24;;;;;;;15.30;2.28;;;;;;;;;;5074177;28;20044;-62
2022/09/05 01:04:51;;;;;;;43.33;4.80;;;;;;;;;;5070481;28;20081;-61
2022/09/05 01:07:17;;;;;;;30.52;3.83;;;;;;;;;;5073949;28;20059;-60
2022/09/05 01:09:44;;;;;;;16.83;2.50;;;;;;;;;;5074085;28;20041;-61
2022/09/05 01:12:26;;;;;;;11.63;1.73;;;;;;;;;;5073805;28;20048;-61
2022/09/05 01:15:13;;;;;;;16.00;2.15;;;;;;;;;;5074272;28;20115;-60
2022/09/05 01:17:59;;;;;;;33.03;4.03;;;;;;;;;;5074404;28;20040;-60
2022/09/05 01:20:45;;;;;;;23.25;2.92;;;;;;;;;;5073490;28;20042;-60
2022/09/05 01:23:18;;;;;;;27.48;3.17;;;;;;;;;;5071882;28;20052;-60
2022/09/05 01:25:50;;;;;;;16.55;2.38;;;;;;;;;;5071371;28;20055;-61
2022/09/05 01:28:26;;;;;;;26.73;3.30;;;;;;;;;;5073101;28;20040;-61
2022/09/05 01:31:17;;;;;;;13.35;2.08;;;;;;;;;;5073908;28;20036;-61
2022/09/05 01:34:02;;;;;;;24.83;3.08;;;;;;;;;;5074028;28;20127;-61
2022/09/05 01:36:29;;;;;;;21.52;2.88;;;;;;;;;;5073646;28;20040;-60
2022/09/05 01:39:00;;;;;;;24.85;2.97;;;;;;;;;;5073942;28;20075;-60
2022/09/05 01:42:06;;;;;;;25.38;3.20;;;;;;;;;;5060204;28;20134;-60
2022/09/05 01:44:39;;;;;;;11.32;1.98;;;;;;;;;;5079249;28;20044;-61
2022/09/05 01:47:24;;;;;;;23.88;3.15;;;;;;;;;;5070865;28;20048;-62
2022/09/05 01:50:08;;;;;;;14.35;2.33;;;;;;;;;;5070126;28;20105;-61
2022/09/05 01:52:41;;;;;;;24.50;3.25;;;;;;;;;;5071694;28;20085;-61
2022/09/05 01:55:28;;;;;;;12.13;2.05;;;;;;;;;;5073437;28;20048;-61
2022/09/05 01:58:01;;;;;;;25.83;3.42;;;;;;;;;;5072513;28;20544;-60
2022/09/05 02:00:31;;;;;;;11.82;2.15;;;;;;;;;;5073579;28;20051;-60
2022/09/05 02:03:06;;;;;;;29.40;3.83;;;;;;;;;;5073660;28;20498;-61
2022/09/05 02:05:38;;;;;;;33.35;3.92;;;;;;;;;;5073757;28;20151;-61
2022/09/05 02:08:14;;;;;;;41.60;4.35;;;;;;;;;;5071119;28;20497;-64
2022/09/05 02:10:53;;;;;;;16.48;2.65;;;;;;;;;;5071938;28;20040;-62
2022/09/05 02:13:27;;;;;;;23.55;3.08;;;;;;;;;;5072911;28;20538;-62
2022/09/05 02:15:56;;;;;;;21.80;2.72;;;;;;;;;;5073227;28;20032;-62
2022/09/05 02:18:51;;;;;;;12.77;2.42;;;;;;;;;;5073587;28;20040;-62
2022/09/05 02:21:29;;;;;;;5.82;1.58;;;;;;;;;;4968621;28;20616;-61
2022/09/05 02:24:07;;;;;;;29.02;4.05;;;;;;;;;;4968003;28;20046;-63
2022/09/05 02:26:38;;;;;;;16.25;2.58;;;;;;;;;;4968684;28;20145;-63
2022/09/05 02:29:18;;;;;;;25.50;3.10;;;;;;;;;;4968640;28;20127;-64
2022/09/05 02:32:00;;;;;;;16.85;2.72;;;;;;;;;;4968661;28;20444;-66
2022/09/05 02:34:39;;;;;;;36.78;4.82;;;;;;;;;;4968720;28;20054;-65
2022/09/05 02:37:20;;;;;;;15.27;2.28;;;;;;;;;;4965863;28;20046;-62
2022/09/05 02:40:12;;;;;;;25.80;3.75;;;;;;;;;;4971669;28;20655;-63
2022/09/05 02:43:05;;;;;;;53.20;4.78;;;;;;;;;;4970149;28;20057;-64
2022/09/05 02:45:51;;;;;;;25.60;2.95;;;;;;;;;;4967460;28;20055;-64
2022/09/05 02:48:46;;;;;;;20.25;2.65;;;;;;;;;;4967677;28;20111;-63
2022/09/05 02:51:12;;;;;;;22.42;3.55;;;;;;;;;;4967732;28;20053;-63
2022/09/05 02:54:16;;;;;;;23.15;3.05;;;;;;;;;;4959504;28;20138;-63
2022/09/05 02:57:06;;;;;;;11.73;2.17;;;;;;;;;;4940054;28;20492;-63
2022/09/05 02:59:52;;;;;;;184.35;11.00;;;;;;;;;;5040335;28;20057;-63
2022/09/05 03:02:28;;;;;;;17.05;2.35;;;;;;;;;;5043544;28;20195;-62
2022/09/05 03:05:06;;;;;;;15.75;2.55;;;;;;;;;;5037456;28;20132;-63
2022/09/05 03:07:45;;;;;;;12.38;1.52;;;;;;;;;;5044520;28;20115;-62
2022/09/05 03:10:23;;;;;;;24.15;3.15;;;;;;;;;;5044450;28;20033;-63
2022/09/05 03:13:10;;;;;;;13.65;2.60;;;;;;;;;;5044311;28;20047;-61
2022/09/05 03:15:43;;;;;;;22.88;3.15;;;;;;;;;;5044191;28;20533;-62
2022/09/05 03:18:28;;;;;;;19.05;3.38;;;;;;;;;;5044396;28;20124;-62
2022/09/05 03:21:01;;;;;;;32.10;4.43;;;;;;;;;;5044358;28;20119;-62
2022/09/05 03:24:01;;;;;;;15.35;2.58;;;;;;;;;;5043607;28;20101;-61
2022/09/05 03:26:40;;;;;;;20.88;4.85;;;;;;;;;;5044470;28;20065;-61
2022/09/05 03:29:10;;;;;;;20.00;3.88;;;;;;;;;;5044039;28;20084;-63
2022/09/05 03:31:36;;;;;;;37.33;4.22;;;;;;;;;;5047238;28;20037;-62
2022/09/05 03:34:09;;;;;;;13.13;2.85;;;;;;;;;;5042339;28;20090;-63
2022/09/05 03:36:47;;;;;;;43.35;5.40;;;;;;;;;;5037995;28;20168;-63
2022/09/05 03:39:20;;;;;;;19.45;3.50;;;;;;;;;;5044577;28;20041;-60
2022/09/05 03:42:05;;;;;;;82.85;8.88;;;;;;;;;;5042953;28;20046;-60
2022/09/05 03:44:59;;;;;;;26.98;3.72;;;;;;;;;;5043799;28;20034;-60
2022/09/05 03:47:47;;;;;;;29.50;4.45;;;;;;;;;;5045218;28;20056;-60
2022/09/05 03:50:17;;;;;;;43.60;6.07;;;;;;;;;;5044783;28;20452;-61
2022/09/05 03:53:22;;;;;;;35.63;4.82;;;;;;;;;;5060823;28;20118;-62
2022/09/05 03:56:27;;;;;;;31.77;4.70;;;;;;;;;;5072684;28;20050;-62
2022/09/05 03:59:32;;;;;;;37.22;4.78;;;;;;;;;;5072994;28;20056;-62
2022/09/05 04:02:03;;;;;;;35.63;4.43;;;;;;;;;;5071907;28;20115;-62
2022/09/05 04:05:02;;;;;;;37.47;5.13;;;;;;;;;;5073531;28;20047;-63
2022/09/05 04:07:51;;;;;;;27.70;4.60;;;;;;;;;;5070838;28;20504;-63
2022/09/05 04:10:49;;;;;;;27.90;3.50;;;;;;;;;;5074470;28;20154;-63
2022/09/05 04:13:22;;;;;;;51.65;5.68;;;;;;;;;;5075037;28;20068;-62
2022/09/05 04:16:07;;;;;;;35.15;4.43;;;;;;;;;;5075362;28;20089;-60
2022/09/05 04:18:36;;;;;;;37.40;4.80;;;;;;;;;;5075308;28;20040;-61
2022/09/05 04:21:32;;;;;;;38.38;5.10;;;;;;;;;;5075364;28;20044;-61
2022/09/05 04:24:37;;;;;;;126.80;10.20;;;;;;;;;;5053925;28;20048;-60
2022/09/05 04:27:06;;;;;;;55.35;5.78;;;;;;;;;;4973052;28;20130;-61
2022/09/05 04:29:38;;;;;;;73.72;8.63;;;;;;;;;;4973435;28;20121;-60
2022/09/05 04:32:13;;;;;;;131.80;9.50;;;;;;;;;;4970205;28;20141;-60
2022/09/05 04:34:44;;;;;;;75.40;7.00;;;;;;;;;;4972517;28;20058;-60
2022/09/05 04:37:30;;;;;;;78.80;7.97;;;;;;;;;;4974180;28;20074;-60
2022/09/05 04:40:30;;;;;;;33.75;5.78;;;;;;;;;;4974197;28;20047;-61
2022/09/05 04:43:01;;;;;;;34.75;5.43;;;;;;;;;;4973252;28;20134;-63
2022/09/05 04:45:29;;;;;;;25.67;4.10;;;;;;;;;;4973422;28;20130;-61
2022/09/05 04:47:59;;;;;;;36.35;4.80;;;;;;;;;;4973555;28;20085;-61
2022/09/05 04:50:28;;;;;;;25.73;3.25;;;;;;;;;;4973722;28;20050;-60
2022/09/05 04:53:30;;;;;;;19.65;3.40;;;;;;;;;;4966429;28;20063;-60
2022/09/05 04:55:57;;;;;;;39.03;5.18;;;;;;;;;;4970160;28;20415;-60
2022/09/05 04:58:29;;;;;;;24.67;3.85;;;;;;;;;;5026463;28;20489;-58
2022/09/05 05:01:39;;;;;;;245.27;17.50;;;;;;;;;;5050602;28;20045;-58
2022/09/05 05:04:26;;;;;;;90.70;8.32;;;;;;;;;;5050564;28;20047;-58
2022/09/05 05:07:25;;;;;;;188.38;13.25;;;;;;;;;;5050689;28;20044;-58
2022/09/05 05:09:55;;;;;;;66.45;6.65;;;;;;;;;;5049430;28;20033;-59
2022/09/05 05:12:48;;;;;;;32.00;4.63;;;;;;;;;;5048614;28;20037;-59
2022/09/05 05:15:42;;;;;;;208.35;14.77;;;;;;;;;;5048861;28;20039;-58
2022/09/05 05:18:31;;;;;;;38.83;4.68;;;;;;;;;;5049088;28;20059;-58
2022/09/05 05:21:26;;;;;;;26.70;3.35;;;;;;;;;;5049240;28;20124;-58
2022/09/05 05:23:54;;;;;;;509.95;48.22;;;;;;;;;;5049409;28;20044;-58
2022/09/05 05:26:47;;;;;;;36.15;4.45;;;;;;;;;;5050068;28;20116;-58
2022/09/05 05:29:42;;;;;;;21.15;3.22;;;;;;;;;;5000685;28;20070;-59
2022/09/05 05:32:15;;;;;;;37.92;5.00;;;;;;;;;;5002668;28;20129;-61
2022/09/05 05:35:09;;;;;;;37.55;5.05;;;;;;;;;;5001356;28;20054;-61
2022/09/05 05:37:41;;;;;;;29.73;3.47;;;;;;;;;;5007003;28;20077;-61
2022/09/05 05:40:16;;;;;;;53.22;5.53;;;;;;;;;;5007881;28;20050;-61
2022/09/05 05:42:43;;;;;;;32.08;4.07;;;;;;;;;;5007753;28;20041;-60
2022/09/05 05:45:17;;;;;;;32.85;4.18;;;;;;;;;;5008125;28;20038;-60
2022/09/05 05:47:46;;;;;;;49.53;5.85;;;;;;;;;;5007784;28;20050;-60
2022/09/05 05:50:24;;;;;;;141.52;12.18;;;;;;;;;;5007978;28;20220;-60
2022/09/05 05:53:01;;;;;;;54.28;6.22;;;;;;;;;;5008113;28;20085;-60
2022/09/05 05:55:31;;;;;;;435.38;29.83;;;;;;;;;;5007702;28;20045;-60
2022/09/05 05:58:36;;;;;;;25.77;3.97;;;;;;;;;;5000778;28;20126;-59
2022/09/05 06:01:05;;;;;;;26.15;3.72;;;;;;;;;;5004450;28;20059;-59
2022/09/05 06:04:17;;;;;;;126.82;10.52;;;;;;;;;;5007022;28;20048;-59
2022/09/05 06:06:59;;;;;;;24.52;3.72;;;;;;;;;;5039609;28;20057;-59
2022/09/05 06:09:29;;;;;;;361.38;27.83;;;;;;;;;;5049561;28;20128;-59
2022/09/05 06:12:31;;;;;;;62.70;7.10;;;;;;;;;;5049240;28;20478;-59
2022/09/05 06:15:32;;;;;;;26.63;3.72;;;;;;;;;;5049338;28;20501;-59
2022/09/05 06:18:06;;;;;;;47.05;4.88;;;;;;;;;;5049693;28;20114;-59
2022/09/05 06:20:47;;;;;;;53.33;5.10;;;;;;;;;;5049820;28;20472;-59
2022/09/05 06:23:34;;;;;;;20.55;3.17;;;;;;;;;;5034429;28;20512;-59
2022/09/05 06:26:06;;;;;;;20.33;2.97;;;;;;;;;;5037389;28;20045;-59
2022/09/05 06:28:45;;;;;;;12.77;2.35;;;;;;;;;;5049786;28;20129;-59
2022/09/05 06:31:20;;;;;;;381.13;24.00;;;;;;;;;;5049541;28;20068;-59
2022/09/05 06:34:20;;;;;;;30.35;4.30;;;;;;;;;;5046633;28;20547;-60
2022/09/05 06:37:06;;;;;;;15.73;3.10;;;;;;;;;;5041998;28;20052;-60
2022/09/05 06:39:57;;;;;;;24.60;4.10;;;;;;;;;;5048991;28;20410;-59
2022/09/05 06:42:30;;;;;;;34.30;4.18;;;;;;;;;;5049566;28;20037;-60
2022/09/05 06:45:15;;;;;;;16.45;3.40;;;;;;;;;;5053360;28;20086;-58
2022/09/05 06:47:56;;;;;;;30.90;4.55;;;;;;;;;;5052956;28;20076;-61
2022/09/05 06:50:28;;;;;;;288.73;22.52;;;;;;;;;;5053449;28;20070;-60
2022/09/05 06:53:44;;;;;;;43.50;5.63;;;;;;;;;;5066990;28;20053;-61
2022/09/05 06:56:20;;;;;;;23.23;3.60;;;;;;;;;;4970337;28;20078;-58
2022/09/05 06:59:10;;;;;;;16.25;2.80;;;;;;;;;;4973629;28;20507;-60
2022/09/05 07:01:44;;;;;;;26.33;4.07;;;;;;;;;;4973620;28;20046;-60
2022/09/05 07:04:26;;;;;;;12.95;2.95;;;;;;;;;;4974856;28;20463;-60
2022/09/05 07:07:16;;;;;;;21.25;3.97;;;;;;;;;;4974771;28;20047;-59
2022/09/05 07:09:58;;;;;;;28.90;4.00;;;;;;;;;;4975208;28;20471;-59
2022/09/05 07:12:27;;;;;;;22.83;3.33;;;;;;;;;;4975114;28;20043;-59
2022/09/05 07:15:03;;;;;;;34.95;4.93;;;;;;;;;;4975326;28;20129;-60
2022/09/05 07:17:47;;;;;;;126.40;11.02;;;;;;;;;;4975749;28;20062;-59
2022/09/05 07:21:06;;;;;;;25.13;4.53;;;;;;;;;;4975499;28;20117;-60
2022/09/05 07:23:46;;;;;;;24.13;3.63;;;;;;;;;;4901572;29;20060;-59
2022/09/05 07:26:34;;;;;;;16.17;3.40;;;;;;;;;;4929508;29;20062;-59
2022/09/05 07:29:28;;;;;;;53.97;5.75;;;;;;;;;;4939367;28;20059;-60
2022/09/05 07:31:56;;;;;;;26.52;4.53;;;;;;;;;;5028233;28;20041;-59
2022/09/05 07:34:26;;;;;;;17.58;3.42;;;;;;;;;;5025306;28;20116;-59
2022/09/05 07:36:54;;;;;;;19.90;3.25;;;;;;;;;;5021541;28;20581;-59
2022/09/05 07:39:47;;;;;;;17.05;3.10;;;;;;;;;;5021456;28;20120;-59
2022/09/05 07:42:17;;;;;;;9.18;2.00;;;;;;;;;;5015637;28;20115;-59
2022/09/05 07:45:10;;;;;;;22.02;3.88;;;;;;;;;;5025629;28;20038;-59
2022/09/05 07:47:39;;;;;;;17.73;2.95;;;;;;;;;;5023308;28;20056;-59
2022/09/05 07:50:07;;;;;;;20.58;3.35;;;;;;;;;;5030016;28;20608;-59
2022/09/05 07:52:56;;;;;;;32.78;4.68;;;;;;;;;;5028459;28;20042;-59
2022/09/05 07:55:46;;;;;;;23.70;2.72;;;;;;;;;;5023396;28;20042;-59
2022/09/05 07:58:48;;;;;;;176.82;20.08;;;;;;;;;;5035395;28;20578;-59
2022/09/05 08:01:16;;;;;;;19.88;2.72;;;;;;;;;;5076208;28;20455;-59
2022/09/05 08:03:43;;;;;;;28.00;3.85;;;;;;;;;;5076198;28;20060;-59
2022/09/05 08:06:20;;;;;;;8.35;1.65;;;;;;;;;;5075901;28;20469;-59
2022/09/05 08:09:32;;;;;;;18.40;3.13;;;;;;;;;;5076050;28;20059;-59
2022/09/05 08:12:19;;;;;;;26.15;3.15;;;;;;;;;;5075832;28;20113;-59
2022/09/05 08:14:59;;;;;;;190.93;15.23;;;;;;;;;;5076166;28;20492;-59
2022/09/05 08:17:29;;;;;;;21.08;3.15;;;;;;;;;;5075071;28;20074;-60
2022/09/05 08:20:11;;;;;;;19.48;2.75;;;;;;;;;;5073052;28;20052;-59
2022/09/05 08:22:48;;;;;;;19.10;2.55;;;;;;;;;;5073242;28;20535;-60
2022/09/05 08:25:22;;;;;;;9.98;1.77;;;;;;;;;;5075918;28;20039;-59
2022/09/05 08:27:49;;;;;;;24.85;3.45;;;;;;;;;;5074950;28;20029;-59
2022/09/05 08:30:16;;;;;;;6.05;1.40;;;;;;;;;;5076395;28;20059;-59
2022/09/05 08:33:04;;;;;;;21.02;2.72;;;;;;;;;;5073545;28;20154;-59
2022/09/05 08:35:42;;;;;;;10.23;1.75;;;;;;;;;;5075330;28;20046;-59
2022/09/05 08:38:09;;;;;;;18.73;2.47;;;;;;;;;;5071870;28;20123;-59
2022/09/05 08:40:38;;;;;;;27.05;3.47;;;;;;;;;;5075086;28;20062;-59
2022/09/05 08:43:22;;;;;;;9.43;2.05;;;;;;;;;;5075666;28;20068;-59
2022/09/05 08:46:14;;;;;;;5.68;1.25;;;;;;;;;;5075629;28;20032;-58
2022/09/05 08:49:20;;;;;;;44.95;4.70;;;;;;;;;;5074697;28;20113;-59
2022/09/05 08:52:10;;;;;;;94.63;8.27;;;;;;;;;;5074988;28;20495;-59
2022/09/05 08:54:42;;;;;;;1.92;0.77;;;;;;;;;;5075684;28;20448;-58
2022/09/05 08:57:15;;;;;;;21.23;2.95;;;;;;;;;;5074645;28;20035;-59
2022/09/05 08:59:42;;;;;;;13.43;1.85;;;;;;;;;;5075317;28;20074;-59
2022/09/05 09:02:37;;;;;;;71.78;6.18;;;;;;;;;;5073847;28;20044;-59
2022/09/05 09:05:32;;;;;;;22.98;2.53;;;;;;;;;;5071684;28;20094;-59
2022/09/05 09:08:24;;;;;;;33.50;3.40;;;;;;;;;;5072586;28;20095;-58
2022/09/05 09:11:04;;;;;;;17.67;2.05;;;;;;;;;;5072470;28;20040;-59
2022/09/05 09:13:31;;;;;;;16.77;2.20;;;;;;;;;;5076483;28;20493;-59
2022/09/05 09:16:03;;;;;;;28.30;3.20;;;;;;;;;;5079276;28;20041;-59
2022/09/05 09:18:37;;;;;;;34.57;3.43;;;;;;;;;;5074602;28;20045;-59
2022/09/05 09:21:22;;;;;;;13.15;1.45;;;;;;;;;;5074742;28;20111;-59
2022/09/05 09:23:54;;;;;;;279.73;23.63;;;;;;;;;;5074438;28;20460;-58
2022/09/05 09:26:26;;;;;;;13.10;2.13;;;;;;;;;;5072830;28;20037;-59
2022/09/05 09:29:14;;;;;;;22.40;3.28;;;;;;;;;;5071694;28;20044;-59
2022/09/05 09:31:53;;;;;;;14.88;2.05;;;;;;;;;;5072769;28;20442;-59
2022/09/05 09:34:25;;;;;;;47.35;4.85;;;;;;;;;;5072878;28;20370;-59
2022/09/05 09:37:11;;;;;;;13.50;2.47;;;;;;;;;;5074080;28;20501;-59
2022/09/05 09:39:37;;;;;;;17.55;9.13;;;;;;;;;;5074314;28;20113;-59
2022/09/05 09:42:27;;;;;;;13.65;2.90;;;;;;;;;;5074211;28;20040;-58
2022/09/05 09:45:08;;;;;;;49.65;4.22;;;;;;;;;;5074546;28;20040;-59
2022/09/05 09:47:54;;;;;;;31.60;5.05;;;;;;;;;;5073686;28;20032;-59
2022/09/05 09:50:32;;;;;;;46.72;4.80;;;;;;;;;;5072100;28;20454;-59
2022/09/05 09:53:26;;;;;;;20.60;3.50;;;;;;;;;;5070355;28;20071;-60
2022/09/05 09:56:11;;;;;;;15.93;2.95;;;;;;;;;;5069237;28;20139;-59
2022/09/05 09:58:38;;;;;;;6.60;1.73;;;;;;;;;;5071518;28;20047;-60
2022/09/05 10:01:07;;;;;;;8.13;1.70;;;;;;;;;;5073822;28;20116;-60
2022/09/05 10:04:17;;;;;;;265.25;19.80;;;;;;;;;;5073741;28;20037;-59
2022/09/05 10:07:23;;;;;;;14.70;2.13;;;;;;;;;;5074055;28;20063;-59
2022/09/05 10:10:13;;;;;;;10.98;1.85;;;;;;;;;;5078933;28;20119;-59
2022/09/05 10:13:05;;;;;;;12.55;1.98;;;;;;;;;;5078304;28;20036;-59
2022/09/05 10:15:40;;;;;;;61.15;6.15;;;;;;;;;;5073887;28;20044;-59
2022/09/05 10:18:26;;;;;;;22.15;2.65;;;;;;;;;;5073302;28;20477;-59
2022/09/05 10:21:23;;;;;;;24.05;4.10;;;;;;;;;;5074078;28;20271;-59
2022/09/05 10:24:01;;;;;;;26.47;3.73;;;;;;;;;;5073956;28;20036;-59
2022/09/05 10:26:48;;;;;;;17.35;2.40;;;;;;;;;;5072981;28;20090;-59
2022/09/05 10:29:33;;;;;;;12.73;2.15;;;;;;;;;;5068229;28;20043;-59
2022/09/05 10:32:06;;;;;;;23.98;3.10;;;;;;;;;;5069668;28;20448;-59
2022/09/05 10:34:57;;;;;;;16.33;2.30;;;;;;;;;;5068604;28;20040;-59
2022/09/05 10:37:47;;;;;;;60.50;4.80;;;;;;;;;;5071823;28;20044;-58
2022/09/05 10:40:19;;;;;;;646.20;48.17;;;;;;;;;;5073661;28;20040;-59
2022/09/05 10:42:48;;;;;;;8.15;1.30;;;;;;;;;;5073492;28;20116;-58
2022/09/05 10:45:37;;;;;;;24.33;3.40;;;;;;;;;;5073413;28;20485;-59
2022/09/05 10:48:24;;;;;;;61.15;4.25;;;;;;;;;;5073614;28;20113;-59
2022/09/05 10:51:02;;;;;;;244.60;18.63;;;;;;;;;;4944688;29;20051;-59
2022/09/05 10:53:35;;;;;;;28.20;3.53;;;;;;;;;;4946155;29;20063;-59
2022/09/05 10:56:08;;;;;;;18.58;2.47;;;;;;;;;;4949636;29;20083;-59
2022/09/05 10:58:44;;;;;;;46.63;3.25;;;;;;;;;;4949039;29;20748;-59
2022/09/05 11:02:00;;;;;;;27.17;3.17;;;;;;;;;;4944677;28;20063;-59
2022/09/05 11:04:55;;;;;;;30.48;3.65;;;;;;;;;;4946502;29;20103;-59
2022/09/05 11:07:37;;;;;;;13.98;2.00;;;;;;;;;;4948129;28;20051;-59
2022/09/05 11:10:03;;;;;;;18.60;2.67;;;;;;;;;;4944660;29;20055;-59
2022/09/05 11:12:38;;;;;;;10.90;2.00;;;;;;;;;;4944714;29;20061;-59
2022/09/05 11:15:08;;;;;;;21.60;2.72;;;;;;;;;;4944551;29;20063;-58
2022/09/05 11:17:39;;;;;;;10.60;1.63;;;;;;;;;;4945654;29;20123;-59
2022/09/05 11:20:06;;;;;;;18.30;2.47;;;;;;;;;;4949363;29;20618;-59
2022/09/05 11:22:45;;;;;;;16.77;2.03;;;;;;;;;;4946919;29;20070;-59
2022/09/05 11:25:18;;;;;;;11.25;1.55;;;;;;;;;;4944935;28;20520;-59
2022/09/05 11:28:11;;;;;;;15.37;2.23;;;;;;;;;;5003673;28;20056;-59
2022/09/05 11:30:41;;;;;;;11.30;1.60;;;;;;;;;;5075751;28;20040;-58
2022/09/05 11:33:10;;;;;;;21.20;2.60;;;;;;;;;;5076810;28;20050;-59
2022/09/05 11:36:20;;;;;;;35.20;2.72;;;;;;;;;;5076623;28;20043;-59
2022/09/05 11:39:11;;;;;;;14.05;1.67;;;;;;;;;;5076345;28;20047;-59
2022/09/05 11:42:16;;;;;;;21.00;2.55;;;;;;;;;;5076287;28;20126;-59
2022/09/05 11:44:55;;;;;;;25.17;3.30;;;;;;;;;;5076408;28;20401;-59
2022/09/05 11:48:00;;;;;;;30.88;3.72;;;;;;;;;;5074366;28;20106;-59
2022/09/05 11:50:27;;;;;;;25.48;3.28;;;;;;;;;;4981739;28;20039;-59
2022/09/05 11:53:07;;;;;;;424.30;33.08;;;;;;;;;;4985349;28;20060;-59
2022/09/05 11:55:52;;;;;;;414.92;32.35;;;;;;;;;;4982907;28;20054;-59
2022/09/05 11:58:25;;;;;;;28.85;3.35;;;;;;;;;;4981015;28;20562;-59
2022/09/05 12:01:30;;;;;;;10.50;1.42;;;;;;;;;;4986296;28;20058;-59
2022/09/05 12:04:45;;;;;;;10.63;1.45;;;;;;;;;;4981448;28;20046;-59
2022/09/05 12:07:41;;;;;;;12.35;1.65;;;;;;;;;;4986041;28;20132;-59
2022/09/05 12:10:25;;;;;;;12.38;1.50;;;;;;;;;;4981771;28;20125;-59
2022/09/05 12:13:24;;;;;;;10.98;1.25;;;;;;;;;;4985684;28;20566;-59
2022/09/05 12:15:54;;;;;;;25.33;3.03;;;;;;;;;;4981254;28;20057;-59
2022/09/05 12:18:42;;;;;;;7.80;1.02;;;;;;;;;;4985922;28;20038;-59
2022/09/05 12:21:15;;;;;;;58.40;5.05;;;;;;;;;;5030394;28;20048;-59
2022/09/05 12:23:45;;;;;;;19.95;2.58;;;;;;;;;;5075963;28;20039;-59
2022/09/05 12:26:49;;;;;;;22.17;2.72;;;;;;;;;;5074299;28;20044;-59
2022/09/05 12:29:39;;;;;;;17.88;1.90;;;;;;;;;;5075530;28;20039;-59
2022/09/05 12:32:19;;;;;;;28.33;2.97;;;;;;;;;;5070007;28;20036;-59
2022/09/05 12:35:06;;;;;;;22.83;2.88;;;;;;;;;;5071781;28;20038;-59
2022/09/05 12:38:07;;;;;;;15.93;2.30;;;;;;;;;;5070232;28;20041;-60
2022/09/05 12:41:03;;;;;;;20.23;2.50;;;;;;;;;;5069812;28;20639;-59
2022/09/05 12:43:53;;;;;;;22.17;2.55;;;;;;;;;;5069533;28;20040;-59
2022/09/05 12:46:52;;;;;;;30.17;3.13;;;;;;;;;;5074718;28;20044;-59
2022/09/05 12:49:21;;;;;;;106.10;9.93;;;;;;;;;;5075689;28;20098;-59
2022/09/05 12:52:05;;;;;;;22.27;2.90;;;;;;;;;;5070076;28;20089;-59
2022/09/05 12:54:40;;;;;;;23.27;2.70;;;;;;;;;;5075390;28;20072;-59
2022/09/05 12:57:10;;;;;;;19.88;2.42;;;;;;;;;;5074547;28;20115;-59
2022/09/05 13:00:00;;;;;;;17.77;2.05;;;;;;;;;;5081806;28;20042;-59
2022/09/05 13:02:52;;;;;;;13.30;1.85;;;;;;;;;;5075220;28;20032;-59
2022/09/05 13:05:44;;;;;;;51.80;4.28;;;;;;;;;;5075266;28;20050;-59
2022/09/05 13:08:19;;;;;;;18.27;2.03;;;;;;;;;;5071373;28;20064;-59
2022/09/05 13:10:51;;;;;;;29.70;3.42;;;;;;;;;;5073395;28;20049;-59
2022/09/05 13:13:46;;;;;;;7.57;1.40;;;;;;;;;;5073767;28;20049;-59
2022/09/05 13:16:34;;;;;;;16.23;2.60;;;;;;;;;;5074770;28;20685;-59
2022/09/05 13:19:06;;;;;;;14.18;1.77;;;;;;;;;;5074753;28;20492;-59
2022/09/05 13:21:49;;;;;;;150.93;10.35;;;;;;;;;;5074707;28;20068;-59
2022/09/05 13:24:26;;;;;;;23.75;3.08;;;;;;;;;;5074531;28;20569;-59
2022/09/05 13:26:57;;;;;;;32.78;3.03;;;;;;;;;;5074466;28;20040;-59
2022/09/05 13:29:30;;;;;;;279.23;20.20;;;;;;;;;;5072396;28;20052;-59
2022/09/05 13:32:16;;;;;;;16.17;1.98;;;;;;;;;;5068496;28;20115;-59
2022/09/05 13:35:14;;;;;;;27.40;3.50;;;;;;;;;;5070362;28;20120;-59
2022/09/05 13:38:12;;;;;;;35.33;4.28;;;;;;;;;;5070562;28;20047;-58
2022/09/05 13:41:02;;;;;;;21.40;2.55;;;;;;;;;;5069523;28;20045;-58
2022/09/05 13:43:31;;;;;;;26.90;3.17;;;;;;;;;;5073953;28;20489;-59
2022/09/05 13:46:09;;;;;;;18.70;2.38;;;;;;;;;;5074260;28;20102;-59
2022/09/05 13:48:52;;;;;;;33.60;3.10;;;;;;;;;;5074293;28;20780;-59
2022/09/05 13:51:39;;;;;;;107.70;9.60;;;;;;;;;;5073759;28;20052;-58
2022/09/05 13:54:08;;;;;;;39.53;4.00;;;;;;;;;;5073700;28;20039;-59
2022/09/05 13:56:42;;;;;;;23.75;2.95;;;;;;;;;;5086581;28;20119;-59
2022/09/05 13:59:10;;;;;;;17.67;2.45;;;;;;;;;;5066574;28;20052;-58
2022/09/05 14:01:43;;;;;;;43.67;4.38;;;;;;;;;;5073994;28;20102;-58
2022/09/05 14:04:53;;;;;;;33.83;4.15;;;;;;;;;;5074104;28;20481;-58
2022/09/05 14:07:51;;;;;;;39.40;4.03;;;;;;;;;;5072910;28;20126;-58
2022/09/05 14:10:24;;;;;;;9.90;1.35;;;;;;;;;;5073926;28;20047;-58
2022/09/05 14:13:00;;;;;;;25.60;2.92;;;;;;;;;;5073869;28;20045;-58
2022/09/05 14:15:31;;;;;;;12.65;1.65;;;;;;;;;;5074023;28;20048;-58
2022/09/05 14:18:03;;;;;;;39.25;4.45;;;;;;;;;;5073551;28;20127;-59
2022/09/05 14:21:15;;;;;;;27.73;3.25;;;;;;;;;;5074032;28;20039;-59
2022/09/05 14:23:43;;;;;;;21.77;1.92;;;;;;;;;;5073949;28;20115;-59
2022/09/05 14:26:16;;;;;;;12.63;1.42;;;;;;;;;;5070315;28;20063;-58
2022/09/05 14:29:03;;;;;;;20.60;2.83;;;;;;;;;;5071058;28;20068;-58
2022/09/05 14:31:49;;;;;;;14.23;1.92;;;;;;;;;;4968859;28;20392;-59
2022/09/05 14:34:55;;;;;;;14.48;2.03;;;;;;;;;;4968391;28;20495;-58
2022/09/05 14:37:50;;;;;;;16.20;2.08;;;;;;;;;;4965495;28;20122;-59
2022/09/05 14:40:45;;;;;;;14.57;2.10;;;;;;;;;;4968959;28;20054;-58
2022/09/05 14:43:14;;;;;;;21.48;2.95;;;;;;;;;;4967709;28;20047;-58
2022/09/05 14:46:12;;;;;;;21.48;2.40;;;;;;;;;;4967957;28;20090;-59
2022/09/05 14:48:57;;;;;;;18.58;2.58;;;;;;;;;;4968174;28;20499;-58
2022/09/05 14:51:36;;;;;;;65.07;6.15;;;;;;;;;;4970909;28;20081;-58
2022/09/05 14:54:19;;;;;;;26.90;2.95;;;;;;;;;;4968151;28;20068;-58
2022/09/05 14:57:12;;;;;;;45.13;5.32;;;;;;;;;;4967511;28;20047;-59
2022/09/05 15:00:00;;;;;;;226.45;16.70;;;;;;;;;;4955180;28;20116;-58
2022/09/05 15:02:49;;;;;;;18.05;2.10;;;;;;;;;;4968663;28;20043;-59
2022/09/05 15:05:37;;;;;;;26.17;2.97;;;;;;;;;;4971941;28;20055;-58
2022/09/05 15:08:08;;;;;;;8.57;1.40;;;;;;;;;;4997127;28;20139;-59
2022/09/05 15:10:57;;;;;;;65.10;5.78;;;;;;;;;;5072012;28;20072;-59
2022/09/05 15:13:50;;;;;;;30.40;3.03;;;;;;;;;;5074091;28;20090;-59
2022/09/05 15:16:18;;;;;;;59.50;4.43;;;;;;;;;;5077015;28;20128;-59
2022/09/05 15:18:46;;;;;;;14.93;2.13;;;;;;;;;;5074070;28;20051;-59
2022/09/05 15:21:23;;;;;;;26.58;3.33;;;;;;;;;;5076621;28;20477;-59
2022/09/05 15:24:02;;;;;;;26.92;2.78;;;;;;;;;;5076466;28;20044;-59
2022/09/05 15:26:29;;;;;;;51.70;4.85;;;;;;;;;;5074944;28;20044;-59
2022/09/05 15:29:10;;;;;;;56.92;4.18;;;;;;;;;;5074107;28;20048;-59
2022/09/05 15:31:40;;;;;;;33.30;3.45;;;;;;;;;;5075295;28;20094;-59
2022/09/05 15:34:25;;;;;;;14.77;2.13;;;;;;;;;;5076556;28;20047;-59
2022/09/05 15:36:52;;;;;;;23.42;3.13;;;;;;;;;;5058445;28;20036;-59
2022/09/05 15:39:21;;;;;;;22.73;2.47;;;;;;;;;;5076567;28;20508;-59
2022/09/05 15:41:47;;;;;;;27.35;3.15;;;;;;;;;;5075873;28;20042;-59
2022/09/05 15:44:19;;;;;;;37.72;4.07;;;;;;;;;;5072590;28;20120;-58
2022/09/05 15:46:50;;;;;;;30.73;4.10;;;;;;;;;;5075831;28;20456;-59
2022/09/05 15:49:29;;;;;;;40.40;6.05;;;;;;;;;;5076392;28;20098;-60
2022/09/05 15:51:57;;;;;;;115.63;8.90;;;;;;;;;;5076003;28;20110;-57
2022/09/05 15:54:24;;;;;;;44.03;4.30;;;;;;;;;;5076637;28;20064;-58